createdAt,value
2022-09-15T00:01:12.155Z,13.59
2022-09-15T00:03:40.331Z,13.55
2022-09-15T00:06:09.620Z,13.50
2022-09-15T00:08:37.408Z,13.44
2022-09-15T00:11:09.860Z,13.39
2022-09-15T00:13:39.120Z,13.34
2022-09-15T00:16:07.505Z,13.28
2022-09-15T00:18:36.699Z,13.24
2022-09-15T00:21:09.223Z,13.20
2022-09-15T00:23:37.992Z,13.15
2022-09-15T00:26:11.359Z,13.13
2022-09-15T00:28:39.643Z,13.10
2022-09-15T00:31:09.846Z,13.09
2022-09-15T00:33:37.466Z,13.09
2022-09-15T00:36:08.551Z,13.09
2022-09-15T00:38:37.355Z,13.09
2022-09-15T00:41:06.959Z,13.08
2022-09-15T00:43:50.824Z,13.08
2022-09-15T00:46:24.859Z,13.07
2022-09-15T00:49:07.548Z,13.09
2022-09-15T00:51:53.335Z,13.10
2022-09-15T00:54:26.961Z,13.09
2022-09-15T00:56:57.560Z,13.08
2022-09-15T00:59:28.790Z,13.05
2022-09-15T01:02:03.538Z,13.03
2022-09-15T01:04:31.119Z,13.02
2022-09-15T01:07:04.071Z,13.03
2022-09-15T01:09:42.074Z,13.03
2022-09-15T01:12:09.572Z,13.04
2022-09-15T01:14:37.144Z,13.06
2022-09-15T01:17:38.906Z,13.08
2022-09-15T01:20:09.215Z,13.09
2022-09-15T01:23:01.067Z,13.10
2022-09-15T01:25:28.530Z,13.10
2022-09-15T01:28:33.208Z,13.09
2022-09-15T01:31:58.521Z,13.09
2022-09-15T01:34:30.507Z,13.11
2022-09-15T01:37:03.615Z,13.11
2022-09-15T01:39:37.908Z,13.12
2022-09-15T01:42:12.940Z,13.10
2022-09-15T01:44:49.776Z,13.05
2022-09-15T01:47:20.811Z,13.10
2022-09-15T01:50:07.526Z,13.08
2022-09-15T01:52:35.356Z,13.04
2022-09-15T01:55:12.464Z,13.11
2022-09-15T01:57:39.984Z,13.14
2022-09-15T02:00:08.077Z,13.15
2022-09-15T02:02:44.290Z,13.11
2022-09-15T02:05:45.525Z,13.15
2022-09-15T02:08:30.423Z,13.12
2022-09-15T02:11:21.767Z,13.11
2022-09-15T02:14:09.945Z,13.10
2022-09-15T02:16:39.866Z,13.05
2022-09-15T02:19:19.966Z,13.03
2022-09-15T02:22:03.096Z,13.03
2022-09-15T02:24:37.862Z,12.97
2022-09-15T02:27:15.866Z,12.94
2022-09-15T02:29:47.213Z,12.90
2022-09-15T02:32:17.903Z,12.90
2022-09-15T02:34:51.718Z,12.91
2022-09-15T02:37:22.267Z,12.90
2022-09-15T02:39:55.790Z,12.91
2022-09-15T02:42:25.295Z,12.84
2022-09-15T02:44:52.997Z,12.88
2022-09-15T02:47:20.920Z,12.87
2022-09-15T02:49:48.511Z,12.87
2022-09-15T02:52:16.128Z,12.83
2022-09-15T02:54:43.857Z,12.84
2022-09-15T02:57:11.402Z,12.82
2022-09-15T02:59:57.443Z,12.80
2022-09-15T03:02:25.561Z,12.79
2022-09-15T03:04:53.137Z,12.75
2022-09-15T03:07:20.752Z,12.77
2022-09-15T03:09:48.280Z,12.75
2022-09-15T03:12:16.246Z,12.75
2022-09-15T03:14:44.673Z,12.72
2022-09-15T03:17:12.108Z,12.69
2022-09-15T03:19:39.624Z,12.65
2022-09-15T03:22:07.412Z,12.63
2022-09-15T03:24:35.085Z,12.58
2022-09-15T03:27:02.766Z,12.55
2022-09-15T03:29:30.254Z,12.52
2022-09-15T03:31:58.192Z,12.50
2022-09-15T03:34:25.691Z,12.56
2022-09-15T03:36:53.157Z,13.06
2022-09-15T03:39:20.840Z,14.02
2022-09-15T03:41:48.553Z,15.01
2022-09-15T03:44:16.164Z,15.78
2022-09-15T03:46:43.626Z,16.43
2022-09-15T03:49:11.073Z,17.12
2022-09-15T03:51:38.609Z,17.75
2022-09-15T03:54:06.100Z,18.45
2022-09-15T03:56:33.775Z,19.06
2022-09-15T03:59:02.948Z,19.37
2022-09-15T04:01:31.050Z,19.17
2022-09-15T04:03:59.269Z,19.53
2022-09-15T04:06:27.265Z,20.07
2022-09-15T04:08:55.357Z,19.96
2022-09-15T04:11:23.471Z,19.30
2022-09-15T04:13:50.915Z,18.61
2022-09-15T04:16:20.549Z,17.87
2022-09-15T04:18:48.069Z,17.20
2022-09-15T04:21:18.424Z,16.67
2022-09-15T04:23:46.935Z,16.22
2022-09-15T04:26:23.326Z,15.98
2022-09-15T04:28:50.920Z,15.87
2022-09-15T04:31:20.390Z,15.88
2022-09-15T04:33:48.948Z,15.84
2022-09-15T04:36:19.456Z,15.82
2022-09-15T04:38:47.561Z,15.78
2022-09-15T04:41:15.758Z,15.74
2022-09-15T04:43:44.052Z,15.78
2022-09-15T04:46:13.068Z,15.69
2022-09-15T04:48:42.148Z,15.74
2022-09-15T04:51:16.271Z,15.75
2022-09-15T04:53:44.641Z,15.82
2022-09-15T04:56:15.108Z,15.91
2022-09-15T04:58:45.592Z,15.92
2022-09-15T05:01:25.012Z,15.87
2022-09-15T05:03:53.956Z,15.72
2022-09-15T05:06:24.161Z,15.62
2022-09-15T05:08:55.220Z,15.64
2022-09-15T05:11:23.308Z,15.69
2022-09-15T05:13:51.454Z,15.64
2022-09-15T05:16:21.949Z,15.53
2022-09-15T05:18:51.127Z,15.44
2022-09-15T05:21:20.582Z,15.35
2022-09-15T05:23:49.368Z,15.24
2022-09-15T05:26:21.533Z,15.22
2022-09-15T05:28:49.204Z,15.23
2022-09-15T05:31:23.091Z,15.15
2022-09-15T05:33:51.801Z,15.16
2022-09-15T05:36:21.504Z,15.08
2022-09-15T05:38:48.961Z,15.04
2022-09-15T05:41:19.824Z,15.10
2022-09-15T05:43:49.953Z,15.12
2022-09-15T05:46:19.463Z,15.18
2022-09-15T05:48:47.501Z,15.25
2022-09-15T05:51:15.749Z,15.38
2022-09-15T05:53:43.262Z,15.41
2022-09-15T05:56:13.346Z,15.42
2022-09-15T05:58:42.633Z,15.42
2022-09-15T06:01:14.952Z,15.32
2022-09-15T06:03:43.218Z,15.22
2022-09-15T06:06:12.432Z,15.25
2022-09-15T06:08:57.411Z,15.29
2022-09-15T06:11:28.466Z,15.29
2022-09-15T06:14:00.327Z,15.16
2022-09-15T06:16:28.136Z,15.14
2022-09-15T06:18:55.739Z,15.12
2022-09-15T06:21:27.331Z,15.14
2022-09-15T06:24:03.837Z,15.20
2022-09-15T06:26:31.426Z,15.34
2022-09-15T06:29:03.719Z,15.48
2022-09-15T06:31:36.130Z,15.51
2022-09-15T06:34:10.367Z,15.46
2022-09-15T06:36:39.333Z,15.44
2022-09-15T06:39:06.969Z,15.40
2022-09-15T06:42:00.686Z,15.46
2022-09-15T06:44:26.402Z,15.46
2022-09-15T06:46:53.955Z,15.50
2022-09-15T06:49:22.065Z,15.54
2022-09-15T06:51:49.543Z,15.90
2022-09-15T06:54:17.091Z,16.32
2022-09-15T06:56:45.240Z,16.81
2022-09-15T06:59:14.081Z,17.33
2022-09-15T07:01:42.166Z,17.60
2022-09-15T07:04:11.514Z,17.66
2022-09-15T07:06:40.069Z,17.57
2022-09-15T07:09:07.736Z,17.49
2022-09-15T07:11:35.382Z,17.25
2022-09-15T07:14:04.176Z,17.19
2022-09-15T07:16:32.078Z,17.12
2022-09-15T07:19:02.646Z,17.02
2022-09-15T07:21:30.176Z,17.03
2022-09-15T07:23:58.336Z,17.28
2022-09-15T07:26:28.003Z,17.89
2022-09-15T07:28:58.292Z,18.72
2022-09-15T07:31:28.186Z,18.96
2022-09-15T07:33:55.956Z,18.83
2022-09-15T07:36:23.497Z,18.62
2022-09-15T07:38:51.588Z,18.53
2022-09-15T07:41:23.473Z,18.51
2022-09-15T07:43:57.337Z,18.44
2022-09-15T07:46:26.407Z,18.38
2022-09-15T07:48:57.721Z,18.35
2022-09-15T07:51:28.298Z,18.45
2022-09-15T07:53:56.192Z,18.85
2022-09-15T07:56:24.237Z,19.62
2022-09-15T07:58:54.825Z,20.32
2022-09-15T08:01:24.269Z,20.64
2022-09-15T08:03:53.034Z,20.98
2022-09-15T08:06:23.168Z,21.43
2022-09-15T08:08:56.336Z,22.47
2022-09-15T08:11:28.817Z,23.18
2022-09-15T08:13:56.569Z,23.09
2022-09-15T08:16:25.318Z,22.45
2022-09-15T08:18:54.511Z,21.69
2022-09-15T08:21:22.624Z,21.15
2022-09-15T08:23:58.824Z,21.14
2022-09-15T08:26:27.330Z,21.36
2022-09-15T08:29:01.149Z,21.48
2022-09-15T08:31:29.119Z,21.76
2022-09-15T08:33:57.115Z,22.30
2022-09-15T08:36:28.205Z,22.50
2022-09-15T08:38:56.610Z,23.02
2022-09-15T08:41:36.687Z,23.43
2022-09-15T08:44:32.373Z,23.67
2022-09-15T08:47:28.778Z,23.48
2022-09-15T08:50:27.589Z,22.93
2022-09-15T08:53:28.813Z,23.29
2022-09-15T08:56:00.333Z,23.33
2022-09-15T08:58:35.063Z,23.31
2022-09-15T09:01:11.559Z,23.34
2022-09-15T09:03:41.691Z,23.53
2022-09-15T09:06:44.815Z,23.86
2022-09-15T09:09:17.985Z,23.96
2022-09-15T09:12:04.083Z,23.63
2022-09-15T09:15:01.219Z,23.39
2022-09-15T09:17:36.192Z,23.84
2022-09-15T09:20:29.822Z,23.96
2022-09-15T09:23:00.639Z,23.69
2022-09-15T09:25:28.576Z,23.71
2022-09-15T09:27:58.724Z,23.57
2022-09-15T09:30:29.881Z,23.30
2022-09-15T09:33:05.199Z,23.22
2022-09-15T09:35:38.857Z,22.84
2022-09-15T09:38:10.494Z,22.39
2022-09-15T09:40:43.375Z,22.46
2022-09-15T09:43:11.644Z,22.36
2022-09-15T09:45:39.266Z,22.23
2022-09-15T09:48:19.214Z,22.66
2022-09-15T09:50:47.650Z,22.96
2022-09-15T09:53:28.076Z,23.50
2022-09-15T09:56:13.365Z,23.69
2022-09-15T09:58:40.912Z,24.19
2022-09-15T10:01:14.910Z,24.07
2022-09-15T10:03:44.059Z,23.85
2022-09-15T10:06:19.103Z,23.60
2022-09-15T10:08:54.664Z,23.37
2022-09-15T10:11:22.996Z,23.21
2022-09-15T10:13:55.593Z,23.16
2022-09-15T10:16:23.390Z,23.17
2022-09-15T10:18:54.376Z,23.01
2022-09-15T10:21:26.434Z,22.79
2022-09-15T10:23:54.064Z,22.51
2022-09-15T10:26:34.802Z,22.54
2022-09-15T10:29:19.527Z,22.71
2022-09-15T10:31:47.149Z,22.79
2022-09-15T10:34:32.944Z,22.78
2022-09-15T10:37:29.475Z,22.71
2022-09-15T10:40:00.445Z,22.74
2022-09-15T10:42:59.216Z,23.05
2022-09-15T10:45:40.744Z,23.09
2022-09-15T10:48:43.662Z,23.04
2022-09-15T10:51:29.380Z,23.06
2022-09-15T10:54:02.961Z,23.17
2022-09-15T10:56:43.048Z,23.18
2022-09-15T10:59:34.560Z,23.09
2022-09-15T11:02:08.503Z,23.10
2022-09-15T11:04:45.215Z,22.99
2022-09-15T11:07:32.588Z,22.97
2022-09-15T11:10:40.060Z,22.92
2022-09-15T11:13:50.592Z,23.13
2022-09-15T11:16:44.204Z,23.21
2022-09-15T11:19:45.767Z,23.36
2022-09-15T11:22:49.477Z,23.30
2022-09-15T11:25:28.281Z,23.17
2022-09-15T11:28:10.321Z,22.98
2022-09-15T11:30:47.671Z,22.88
2022-09-15T11:33:25.906Z,22.87
2022-09-15T11:36:11.971Z,22.76
2022-09-15T11:39:04.175Z,22.55
2022-09-15T11:41:35.831Z,22.35
2022-09-15T11:44:19.900Z,22.19
2022-09-15T11:47:05.534Z,22.19
2022-09-15T11:49:46.931Z,22.23
2022-09-15T11:52:22.730Z,22.47
2022-09-15T11:55:18.669Z,22.60
2022-09-15T11:57:56.265Z,22.44
2022-09-15T12:00:23.782Z,22.32
2022-09-15T12:02:57.721Z,22.14
2022-09-15T12:05:43.876Z,22.13
2022-09-15T12:08:22.104Z,22.10
2022-09-15T12:10:53.804Z,22.12
2022-09-15T12:13:24.295Z,22.25
2022-09-15T12:15:54.840Z,22.38
2022-09-15T12:18:40.780Z,22.48
2022-09-15T12:21:20.156Z,22.44
2022-09-15T12:23:53.207Z,22.43
2022-09-15T12:26:26.437Z,22.53
2022-09-15T12:28:58.789Z,22.73
2022-09-15T12:31:35.928Z,22.92
2022-09-15T12:34:03.964Z,22.95
2022-09-15T12:36:31.633Z,22.85
2022-09-15T12:39:00.966Z,22.72
2022-09-15T12:41:29.490Z,22.57
2022-09-15T12:44:02.627Z,22.39
2022-09-15T12:46:30.285Z,22.27
2022-09-15T12:49:03.451Z,22.20
2022-09-15T12:51:31.390Z,22.08
2022-09-15T12:54:04.955Z,22.00
2022-09-15T12:56:34.457Z,21.98
2022-09-15T12:59:07.528Z,22.00
2022-09-15T13:01:56.369Z,22.17
2022-09-15T13:04:29.581Z,22.31
2022-09-15T13:07:15.262Z,22.28
2022-09-15T13:09:58.887Z,22.09
2022-09-15T13:17:14.507Z,21.63
2022-09-15T13:19:49.216Z,21.46
2022-09-15T13:22:31.950Z,21.36
2022-09-15T13:25:18.422Z,21.32
2022-09-15T13:27:50.578Z,21.34
2022-09-15T13:30:21.636Z,21.33
2022-09-15T13:33:08.416Z,21.33
2022-09-15T13:36:00.035Z,21.29
2022-09-15T13:38:46.443Z,21.22
2022-09-15T13:41:40.357Z,21.10
2022-09-15T13:44:19.301Z,21.01
2022-09-15T13:47:09.078Z,20.93
2022-09-15T13:50:15.291Z,20.88
2022-09-15T13:52:53.578Z,20.81
2022-09-15T13:55:28.118Z,20.75
2022-09-15T14:00:54.183Z,20.54
2022-09-15T14:03:28.943Z,20.45
2022-09-15T14:05:57.165Z,20.43
2022-09-15T14:08:33.673Z,20.41
2022-09-15T14:11:08.913Z,20.36
2022-09-15T14:13:41.234Z,20.36
2022-09-15T14:16:20.259Z,20.34
2022-09-15T14:18:47.738Z,20.32
2022-09-15T14:21:34.956Z,20.33
2022-09-15T14:24:07.258Z,20.32
2022-09-15T14:26:36.122Z,20.28
2022-09-15T14:29:06.626Z,20.28
2022-09-15T14:31:41.313Z,20.26
2022-09-15T14:34:21.995Z,20.26
2022-09-15T14:37:21.117Z,20.23
2022-09-15T14:39:56.512Z,20.18
2022-09-15T14:42:31.285Z,20.14
2022-09-15T14:48:01.629Z,20.09
2022-09-15T14:50:33.247Z,19.98
2022-09-15T14:53:28.479Z,20.03
2022-09-15T14:56:07.030Z,19.97
2022-09-15T14:58:43.706Z,19.94
2022-09-15T15:01:22.890Z,19.89
2022-09-15T15:04:00.540Z,19.87
2022-09-15T15:06:38.286Z,19.81
2022-09-15T15:09:30.447Z,19.78
2022-09-15T15:12:20.925Z,19.74
2022-09-15T15:14:48.441Z,19.72
2022-09-15T15:17:54.876Z,19.68
2022-09-15T15:20:25.901Z,19.65
2022-09-15T15:23:13.350Z,19.65
2022-09-15T15:25:42.022Z,19.61
2022-09-15T15:28:36.210Z,19.50
2022-09-15T15:31:23.911Z,19.42
2022-09-15T15:34:00.485Z,19.33
2022-09-15T15:36:30.205Z,19.28
2022-09-15T15:39:04.359Z,19.23
2022-09-15T15:41:35.815Z,19.13
2022-09-15T15:44:08.364Z,19.13
2022-09-15T15:46:58.079Z,19.07
2022-09-15T15:49:27.970Z,18.98
2022-09-15T15:51:57.687Z,18.91
2022-09-15T15:54:27.037Z,18.87
2022-09-15T15:56:55.572Z,18.83
2022-09-15T15:59:23.055Z,18.78
2022-09-15T16:01:55.405Z,18.72
2022-09-15T16:04:23.090Z,18.69
2022-09-15T16:06:51.202Z,18.61
2022-09-15T16:09:20.976Z,18.57
2022-09-15T16:11:48.923Z,18.55
2022-09-15T16:14:16.480Z,18.53
2022-09-15T16:16:44.861Z,18.50
2022-09-15T16:19:12.892Z,18.49
2022-09-15T16:21:42.679Z,18.48
2022-09-15T16:24:15.391Z,18.47
2022-09-15T16:26:44.243Z,18.47
2022-09-15T16:29:12.216Z,18.46
2022-09-15T16:31:40.228Z,18.46
2022-09-15T16:34:13.849Z,18.42
2022-09-15T16:36:41.254Z,18.43
2022-09-15T16:39:08.808Z,18.40
2022-09-15T16:41:39.381Z,18.39
2022-09-15T16:44:16.254Z,18.37
2022-09-15T16:46:43.838Z,18.37
2022-09-15T16:49:11.301Z,18.38
2022-09-15T16:51:38.743Z,18.38
2022-09-15T16:54:15.670Z,18.36
2022-09-15T16:56:43.548Z,18.33
2022-09-15T16:59:11.126Z,18.23
2022-09-15T17:01:39.260Z,18.22
2022-09-15T17:04:14.999Z,18.17
2022-09-15T17:06:43.536Z,18.14
2022-09-15T17:09:10.998Z,18.05
2022-09-15T17:11:38.568Z,18.01
2022-09-15T17:14:06.293Z,17.95
2022-09-15T17:16:33.686Z,17.87
2022-09-15T17:19:01.188Z,17.78
2022-09-15T17:21:28.849Z,17.72
2022-09-15T17:23:56.300Z,17.70
2022-09-15T17:26:31.236Z,17.70
2022-09-15T17:28:59.151Z,17.72
2022-09-15T17:31:28.143Z,17.73
2022-09-15T17:33:55.830Z,17.72
2022-09-15T17:36:23.358Z,17.76
2022-09-15T17:38:50.861Z,17.79
2022-09-15T17:41:20.561Z,17.80
2022-09-15T17:43:48.369Z,17.85
2022-09-15T17:46:15.850Z,17.90
2022-09-15T17:48:43.403Z,17.92
2022-09-15T17:51:17.477Z,17.95
2022-09-15T17:53:48.061Z,17.98
2022-09-15T17:56:15.633Z,17.98
2022-09-15T17:58:43.383Z,17.99
2022-09-15T18:01:15.749Z,17.99
2022-09-15T18:03:45.072Z,17.98
2022-09-15T18:06:13.019Z,17.94
2022-09-15T18:08:41.244Z,17.90
2022-09-15T18:11:11.160Z,17.87
2022-09-15T18:13:38.614Z,17.82
2022-09-15T18:16:11.140Z,17.79
2022-09-15T18:18:40.479Z,17.74
2022-09-15T18:21:10.301Z,17.72
2022-09-15T18:23:38.367Z,17.69
2022-09-15T18:26:06.100Z,17.67
2022-09-15T18:28:33.675Z,17.59
2022-09-15T18:31:01.407Z,17.64
2022-09-15T18:33:29.033Z,17.61
2022-09-15T18:35:59.224Z,17.63
2022-09-15T18:38:26.728Z,17.62
2022-09-15T18:40:56.501Z,17.60
2022-09-15T18:43:26.692Z,17.56
2022-09-15T18:46:03.284Z,17.56
2022-09-15T18:48:31.240Z,17.54
2022-09-15T18:50:59.000Z,17.53
2022-09-15T18:53:26.437Z,17.50
2022-09-15T18:55:53.921Z,17.45
2022-09-15T18:58:22.731Z,17.41
2022-09-15T19:00:50.434Z,17.37
2022-09-15T19:03:17.902Z,17.36
2022-09-15T19:05:46.263Z,17.33
2022-09-15T19:08:13.897Z,17.30
2022-09-15T19:10:44.387Z,17.27
2022-09-15T19:13:14.323Z,17.25
2022-09-15T19:15:44.223Z,17.24
2022-09-15T19:18:12.341Z,17.17
2022-09-15T19:20:40.614Z,17.23
2022-09-15T19:23:09.356Z,17.22
2022-09-15T19:25:37.109Z,17.20
2022-09-15T19:28:04.657Z,17.20
2022-09-15T19:30:32.351Z,17.20
2022-09-15T19:33:00.056Z,17.20
2022-09-15T19:35:27.602Z,17.20
2022-09-15T19:37:55.482Z,17.19
2022-09-15T19:40:24.049Z,17.22
2022-09-15T19:42:52.582Z,17.15
2022-09-15T19:45:21.442Z,17.20
2022-09-15T19:47:49.008Z,17.20
2022-09-15T19:50:16.929Z,17.11
2022-09-15T19:52:44.541Z,17.19
2022-09-15T19:55:13.322Z,17.18
2022-09-15T19:57:42.538Z,17.18
2022-09-15T20:00:12.863Z,17.18
2022-09-15T20:02:40.654Z,17.18
2022-09-15T20:05:09.360Z,17.17
2022-09-15T20:07:37.173Z,17.17
2022-09-15T20:10:05.662Z,17.16
2022-09-15T20:12:33.604Z,17.14
2022-09-15T20:15:01.248Z,17.13
2022-09-15T20:17:29.310Z,17.13
2022-09-15T20:19:56.881Z,17.08
2022-09-15T20:22:24.925Z,17.13
2022-09-15T20:24:52.481Z,17.10
2022-09-15T20:27:20.035Z,17.07
2022-09-15T20:29:47.612Z,17.05
2022-09-15T20:32:15.414Z,17.04
2022-09-15T20:34:43.058Z,17.00
2022-09-15T20:37:10.539Z,17.00
2022-09-15T20:39:38.318Z,17.01
2022-09-15T20:42:05.966Z,17.00
2022-09-15T20:44:33.585Z,17.00
2022-09-15T20:47:01.117Z,16.98
2022-09-15T20:49:29.862Z,16.98
2022-09-15T20:51:57.618Z,16.98
2022-09-15T20:54:25.176Z,16.97
2022-09-15T20:56:52.628Z,16.99
2022-09-15T20:59:20.149Z,17.00
2022-09-15T21:01:47.821Z,17.00
2022-09-15T21:04:15.258Z,16.98
2022-09-15T21:06:42.712Z,17.03
2022-09-15T21:09:10.228Z,17.03
2022-09-15T21:11:37.775Z,17.05
2022-09-15T21:14:05.319Z,17.06
2022-09-15T21:16:35.166Z,17.08
2022-09-15T21:19:03.000Z,17.11
2022-09-15T21:21:32.533Z,17.15
2022-09-15T21:24:04.291Z,17.20
2022-09-15T21:26:34.418Z,17.19
2022-09-15T21:29:01.984Z,17.28
2022-09-15T21:31:32.311Z,17.28
2022-09-15T21:34:00.647Z,17.26
2022-09-15T21:36:30.576Z,17.32
2022-09-15T21:38:59.685Z,17.34
2022-09-15T21:41:30.232Z,17.34
2022-09-15T21:43:59.362Z,17.34
2022-09-15T21:46:31.564Z,17.35
2022-09-15T21:49:00.584Z,17.32
2022-09-15T21:51:29.975Z,17.34
2022-09-15T21:53:59.399Z,17.32
2022-09-15T21:56:28.587Z,17.31
2022-09-15T21:58:56.202Z,17.26
2022-09-15T22:01:25.530Z,17.26
2022-09-15T22:03:56.007Z,17.21
2022-09-15T22:06:27.882Z,17.14
2022-09-15T22:08:55.702Z,17.10
2022-09-15T22:11:23.956Z,17.09
2022-09-15T22:13:51.553Z,17.05
2022-09-15T22:16:21.467Z,17.03
2022-09-15T22:18:49.536Z,17.01
2022-09-15T22:21:19.655Z,16.97
2022-09-15T22:23:48.625Z,16.94
2022-09-15T22:26:30.307Z,16.93
2022-09-15T22:29:00.204Z,16.89
2022-09-15T22:31:29.857Z,16.86
2022-09-15T22:33:57.888Z,16.83
2022-09-15T22:36:29.675Z,16.81
2022-09-15T22:39:05.879Z,16.81
2022-09-15T22:41:38.619Z,16.77
2022-09-15T22:44:07.848Z,16.74
2022-09-15T22:46:35.462Z,16.72
2022-09-15T22:49:03.366Z,16.69
2022-09-15T22:51:30.780Z,16.64
2022-09-15T22:54:01.050Z,16.64
2022-09-15T22:56:28.839Z,16.56
2022-09-15T22:58:56.985Z,16.59
2022-09-15T23:01:28.216Z,16.56
2022-09-15T23:03:58.549Z,16.54
2022-09-15T23:06:28.693Z,16.52
2022-09-15T23:08:59.220Z,16.49
2022-09-15T23:11:28.749Z,16.47
2022-09-15T23:13:56.816Z,16.45
2022-09-15T23:16:25.272Z,16.41
2022-09-15T23:18:53.981Z,16.37
2022-09-15T23:21:22.266Z,16.37
2022-09-15T23:23:50.324Z,16.35
2022-09-15T23:26:20.076Z,16.36
2022-09-15T23:28:49.405Z,16.31
2022-09-15T23:31:17.749Z,16.33
2022-09-15T23:33:46.205Z,16.33
2022-09-15T23:36:16.762Z,16.33
2022-09-15T23:38:45.606Z,16.29
2022-09-15T23:41:14.172Z,16.29
2022-09-15T23:43:41.790Z,16.28
2022-09-15T23:46:10.170Z,16.26
2022-09-15T23:48:37.828Z,16.26
2022-09-15T23:51:06.042Z,16.23
2022-09-15T23:53:34.517Z,16.19
2022-09-15T23:56:02.483Z,16.18
2022-09-15T23:58:30.004Z,16.19
